Time;durP1;ratioP1;P1;durP2;ratioP2;P2;SDS_P1;SDS_P2;PMS_P1;PMS_P2;Temp;Humidity;BMP_temperature;BMP_pressure;BME280_temperature;BME280_humidity;BME280_pressure;Samples;Min_cycle;Max_cycle;Signal;HPM_P1;HPM_P2
2022/10/14 00:01:04;;;;;;;4.30;2.40;;;13.10;99.90;;;;;;5053795;28;20475;-77
2022/10/14 00:03:30;;;;;;;0.50;0.30;;;13.10;99.90;;;;;;5053423;28;20456;-75
2022/10/14 00:05:57;;;;;;;0.50;0.40;;;13.10;99.90;;;;;;5053368;28;20467;-76
2022/10/14 00:08:26;;;;;;;2.83;1.27;;;13.10;99.90;;;;;;5053127;28;20468;-76
2022/10/14 00:10:53;;;;;;;1.73;1.23;;;13.10;99.90;;;;;;5052239;28;20479;-76
2022/10/14 00:13:19;;;;;;;1.13;1.13;;;13.00;99.90;;;;;;5053326;28;20441;-76
2022/10/14 00:15:46;;;;;;;1.97;1.87;;;13.00;99.90;;;;;;5052971;28;20438;-76
2022/10/14 00:18:13;;;;;;;1.37;1.00;;;13.00;99.90;;;;;;5053250;28;20443;-76
2022/10/14 00:20:40;;;;;;;0.50;0.30;;;13.00;99.90;;;;;;5053107;28;20493;-76
2022/10/14 00:23:07;;;;;;;2.60;2.00;;;13.00;99.90;;;;;;5052971;28;20444;-76
2022/10/14 00:25:39;;;;;;;0.50;0.40;;;13.00;99.90;;;;;;5052475;28;20492;-77
2022/10/14 00:28:05;;;;;;;1.63;1.53;;;13.00;99.90;;;;;;5052884;28;20476;-76
2022/10/14 00:30:33;;;;;;;0.50;0.33;;;13.00;99.90;;;;;;5052903;28;20459;-76
2022/10/14 00:33:00;;;;;;;3.13;0.70;;;13.00;99.90;;;;;;5053341;28;20460;-77
2022/10/14 00:35:26;;;;;;;2.30;1.50;;;13.10;99.90;;;;;;5052815;28;20436;-76
2022/10/14 00:37:53;;;;;;;0.50;0.40;;;13.00;99.90;;;;;;5052712;28;20445;-77
2022/10/14 00:40:20;;;;;;;1.40;1.40;;;13.00;99.90;;;;;;5053346;28;20467;-76
2022/10/14 00:42:48;;;;;;;2.93;2.63;;;13.10;99.90;;;;;;5052747;28;21045;-76
2022/10/14 00:45:19;;;;;;;0.70;0.70;;;13.10;99.90;;;;;;5052493;28;20444;-76
2022/10/14 00:47:47;;;;;;;1.93;1.83;;;13.00;99.90;;;;;;5052755;28;20422;-76
2022/10/14 00:50:15;;;;;;;0.50;0.40;;;13.10;99.90;;;;;;5052862;28;20457;-76
2022/10/14 00:52:43;;;;;;;0.50;0.40;;;13.10;99.90;;;;;;5053045;28;20437;-76
2022/10/14 00:55:14;;;;;;;0.50;0.40;;;13.10;99.90;;;;;;5052640;28;20440;-76
2022/10/14 00:57:42;;;;;;;0.60;0.60;;;13.10;99.90;;;;;;5052941;28;20453;-76
2022/10/14 01:00:14;;;;;;;0.50;0.30;;;13.10;99.90;;;;;;5052403;28;20439;-76
2022/10/14 01:02:41;;;;;;;0.50;0.40;;;13.10;99.90;;;;;;5052507;28;20510;-76
2022/10/14 01:05:11;;;;;;;0.80;0.80;;;13.10;99.90;;;;;;5052461;28;20776;-76
2022/10/14 01:07:45;;;;;;;2.50;1.90;;;13.10;99.90;;;;;;5052560;28;20442;-76
2022/10/14 01:10:19;;;;;;;3.50;2.10;;;13.20;99.90;;;;;;5051738;28;21116;-76
2022/10/14 01:12:55;;;;;;;2.80;1.93;;;13.10;99.90;;;;;;5052527;28;20806;-76
2022/10/14 01:15:33;;;;;;;5.70;1.90;;;13.20;99.90;;;;;;5051530;28;20456;-76
2022/10/14 01:18:10;;;;;;;14.00;1.60;;;13.10;99.90;;;;;;5052263;28;20440;-76
2022/10/14 01:21:11;;;;;;;1.80;1.07;;;13.10;99.90;;;;;;5051971;28;20982;-77
2022/10/14 01:24:20;;;;;;;1.73;1.63;;;13.10;99.90;;;;;;5052504;28;20425;-76
2022/10/14 01:27:20;;;;;;;1.33;1.23;;;13.10;99.90;;;;;;5052111;28;20439;-76
2022/10/14 01:29:59;;;;;;;0.73;0.73;;;13.00;99.90;;;;;;5018704;28;20487;-76
2022/10/14 01:32:29;;;;;;;0.87;0.87;;;13.00;99.90;;;;;;5052007;28;20425;-76
2022/10/14 01:35:02;;;;;;;0.50;0.30;;;13.00;99.90;;;;;;5051256;28;20939;-75
2022/10/14 01:37:32;;;;;;;0.50;0.33;;;13.00;99.90;;;;;;5051919;28;20828;-76
2022/10/14 01:40:02;;;;;;;0.50;0.30;;;13.00;99.90;;;;;;5051845;28;20448;-75
2022/10/14 01:42:33;;;;;;;0.50;0.40;;;13.00;99.90;;;;;;5051756;28;20445;-76
2022/10/14 01:45:06;;;;;;;0.50;0.40;;;13.00;99.90;;;;;;5050905;28;20459;-76
2022/10/14 01:47:36;;;;;;;0.50;0.30;;;13.10;99.90;;;;;;5051477;28;20452;-76
2022/10/14 01:50:07;;;;;;;0.50;0.40;;;13.00;99.90;;;;;;5051684;28;20502;-76
2022/10/14 01:52:39;;;;;;;0.50;0.40;;;13.10;99.90;;;;;;5051617;28;20433;-76
2022/10/14 01:55:11;;;;;;;0.87;0.87;;;13.10;99.90;;;;;;5051261;28;20436;-76
2022/10/14 01:57:43;;;;;;;0.50;0.30;;;13.10;99.90;;;;;;5051369;28;20520;-76
2022/10/14 02:00:12;;;;;;;0.50;0.30;;;13.10;99.90;;;;;;5051669;28;20441;-76
2022/10/14 02:02:39;;;;;;;11.73;2.50;;;13.10;99.90;;;;;;5052507;28;20447;-76
2022/10/14 02:05:13;;;;;;;1.97;1.13;;;13.20;99.90;;;;;;5051531;28;20437;-75
2022/10/14 02:07:43;;;;;;;1.07;0.93;;;13.10;99.90;;;;;;5051571;28;20436;-76
2022/10/14 02:10:18;;;;;;;0.50;0.30;;;13.10;99.90;;;;;;5051134;28;21027;-76
2022/10/14 02:12:55;;;;;;;0.50;0.30;;;13.10;99.90;;;;;;5051661;28;20444;-76
2022/10/14 02:15:31;;;;;;;0.50;0.30;;;13.10;99.90;;;;;;5050470;28;20821;-75
2022/10/14 02:18:09;;;;;;;0.50;0.33;;;13.10;99.90;;;;;;5051462;28;20443;-76
2022/10/14 02:20:40;;;;;;;0.50;0.40;;;13.20;99.90;;;;;;5051100;28;21000;-76
2022/10/14 02:23:11;;;;;;;0.50;0.47;;;13.20;99.90;;;;;;5051618;28;20429;-76
2022/10/14 02:25:41;;;;;;;0.50;0.33;;;13.20;99.90;;;;;;5050716;28;20440;-76
2022/10/14 02:28:10;;;;;;;0.50;0.30;;;13.20;99.90;;;;;;5051257;28;20799;-76
2022/10/14 02:30:43;;;;;;;0.50;0.30;;;13.20;99.90;;;;;;5050644;28;21014;-76
2022/10/14 02:33:10;;;;;;;0.57;0.57;;;13.20;99.90;;;;;;5051382;28;20452;-76
2022/10/14 02:35:40;;;;;;;1.23;1.23;;;13.20;99.90;;;;;;5054965;28;21076;-76
2022/10/14 02:38:08;;;;;;;0.60;0.60;;;13.20;99.90;;;;;;5055689;28;20459;-76
2022/10/14 02:40:39;;;;;;;0.50;0.30;;;13.30;99.90;;;;;;5055460;28;20547;-76
2022/10/14 02:43:08;;;;;;;0.50;0.40;;;13.20;99.90;;;;;;5055249;28;20455;-76
2022/10/14 02:45:36;;;;;;;0.50;0.30;;;13.20;99.90;;;;;;5054776;28;20447;-76
2022/10/14 02:48:05;;;;;;;0.90;0.90;;;13.20;99.90;;;;;;5055056;28;20521;-75
2022/10/14 02:50:32;;;;;;;1.07;0.80;;;13.20;99.90;;;;;;5055048;28;20944;-76
2022/10/14 02:52:59;;;;;;;0.50;0.40;;;13.20;99.90;;;;;;5055114;28;20437;-76
2022/10/14 02:55:26;;;;;;;0.50;0.30;;;13.20;99.90;;;;;;5054749;28;20806;-76
2022/10/14 02:57:53;;;;;;;1.47;1.23;;;13.20;99.90;;;;;;5055272;28;20445;-76
2022/10/14 03:00:21;;;;;;;3.07;2.87;;;13.10;99.90;;;;;;5054873;28;20554;-76
2022/10/14 03:02:48;;;;;;;0.80;0.80;;;13.10;99.90;;;;;;5054904;28;20451;-76
2022/10/14 03:05:16;;;;;;;4.00;2.50;;;13.10;99.90;;;;;;5055114;28;20479;-78
2022/10/14 03:07:43;;;;;;;0.50;0.30;;;13.10;99.90;;;;;;5055084;28;20839;-76
2022/10/14 03:10:10;;;;;;;0.50;0.50;;;13.10;99.90;;;;;;5054475;28;20485;-76
2022/10/14 03:12:36;;;;;;;0.60;0.57;;;13.10;99.90;;;;;;5055778;28;20859;-76
2022/10/14 03:15:04;;;;;;;0.50;0.40;;;13.10;99.90;;;;;;5054494;28;20536;-76
2022/10/14 03:17:31;;;;;;;0.50;0.30;;;13.10;99.90;;;;;;5054924;28;20449;-77
2022/10/14 03:19:58;;;;;;;0.50;0.40;;;13.10;99.90;;;;;;5054660;28;20799;-77
2022/10/14 03:22:26;;;;;;;0.77;0.77;;;13.10;99.90;;;;;;5054454;28;20449;-76
2022/10/14 03:24:53;;;;;;;2.20;1.50;;;13.10;99.90;;;;;;5053561;28;20520;-77
2022/10/14 03:27:20;;;;;;;0.50;0.30;;;13.10;99.90;;;;;;5054393;28;20535;-77
2022/10/14 03:29:47;;;;;;;2.33;2.23;;;13.00;99.90;;;;;;5054251;28;20476;-77
2022/10/14 03:32:13;;;;;;;0.50;0.47;;;13.00;99.90;;;;;;5054103;28;20479;-76
2022/10/14 03:34:40;;;;;;;1.47;1.37;;;13.10;99.90;;;;;;5054740;28;20524;-77
2022/10/14 03:37:07;;;;;;;0.50;0.40;;;13.10;99.90;;;;;;5054437;28;20548;-76
2022/10/14 03:39:35;;;;;;;0.77;0.77;;;13.10;99.90;;;;;;5054497;28;20464;-77
2022/10/14 03:42:03;;;;;;;3.37;0.97;;;13.10;99.90;;;;;;5054224;28;20879;-77
2022/10/14 03:44:29;;;;;;;3.43;2.77;;;13.10;99.90;;;;;;5054033;28;20437;-78
2022/10/14 03:46:57;;;;;;;1.00;1.00;;;13.10;99.90;;;;;;5054703;28;20582;-77
2022/10/14 03:49:23;;;;;;;2.87;2.77;;;13.10;99.90;;;;;;5054814;28;20483;-77
2022/10/14 03:51:50;;;;;;;0.50;0.40;;;13.00;99.90;;;;;;5055115;28;20869;-77
2022/10/14 03:54:17;;;;;;;0.50;0.40;;;13.00;99.90;;;;;;5054925;28;20437;-77
2022/10/14 03:56:45;;;;;;;0.50;0.40;;;13.00;99.90;;;;;;5054690;28;20418;-77
2022/10/14 03:59:12;;;;;;;2.00;1.80;;;13.00;99.90;;;;;;5055202;28;20445;-77
2022/10/14 04:01:39;;;;;;;0.50;0.43;;;13.00;99.90;;;;;;5054871;28;20488;-78
2022/10/14 04:04:06;;;;;;;0.50;0.30;;;13.00;99.90;;;;;;5055021;28;20528;-77
2022/10/14 04:06:32;;;;;;;2.43;2.33;;;13.10;99.90;;;;;;5055171;28;20463;-77
2022/10/14 04:08:59;;;;;;;4.23;2.30;;;13.00;99.90;;;;;;5056430;28;20433;-77
2022/10/14 04:11:26;;;;;;;0.50;0.40;;;13.10;99.90;;;;;;5055841;28;21033;-77
2022/10/14 04:13:57;;;;;;;1.73;1.67;;;13.10;99.90;;;;;;5056595;28;20425;-77
2022/10/14 04:16:24;;;;;;;0.50;0.30;;;13.00;99.90;;;;;;5056904;28;20898;-77
2022/10/14 04:18:51;;;;;;;0.50;0.33;;;13.00;99.90;;;;;;5055673;28;20528;-77
2022/10/14 04:21:18;;;;;;;1.80;1.53;;;13.00;99.90;;;;;;5054649;28;20475;-77
2022/10/14 04:23:45;;;;;;;0.80;0.70;;;13.00;99.90;;;;;;5055241;28;20520;-77
2022/10/14 04:26:12;;;;;;;0.50;0.30;;;13.10;99.90;;;;;;5053850;28;20443;-77
2022/10/14 04:28:38;;;;;;;0.50;0.40;;;13.10;99.90;;;;;;5053906;28;20431;-78
2022/10/14 04:31:07;;;;;;;0.50;0.40;;;13.10;99.90;;;;;;5054260;28;20834;-76
2022/10/14 04:33:34;;;;;;;0.50;0.30;;;13.10;99.90;;;;;;5053275;28;20525;-77
2022/10/14 04:36:02;;;;;;;0.50;0.30;;;13.10;99.90;;;;;;5053175;28;20429;-76
2022/10/14 04:38:29;;;;;;;0.50;0.40;;;13.10;99.90;;;;;;5053389;28;20435;-77
2022/10/14 04:40:56;;;;;;;0.50;0.30;;;13.10;99.90;;;;;;5052733;28;20447;-76
2022/10/14 04:43:23;;;;;;;0.50;0.30;;;13.10;99.90;;;;;;5053532;28;20460;-76
2022/10/14 04:45:50;;;;;;;0.77;0.77;;;13.20;99.90;;;;;;5052956;28;20435;-76
2022/10/14 04:48:18;;;;;;;0.50;0.30;;;13.10;99.90;;;;;;5053266;28;20433;-78
2022/10/14 04:50:45;;;;;;;0.50;0.30;;;13.10;99.90;;;;;;5053546;28;20571;-76
2022/10/14 04:53:12;;;;;;;4.73;4.53;;;13.10;99.90;;;;;;5053669;28;20524;-77
2022/10/14 04:55:39;;;;;;;0.50;0.30;;;13.10;99.90;;;;;;5053038;28;20524;-76
2022/10/14 04:58:06;;;;;;;0.50;0.50;;;13.10;99.90;;;;;;5052449;28;20435;-76
2022/10/14 05:00:33;;;;;;;0.57;0.57;;;13.10;99.90;;;;;;5053085;28;20617;-76
2022/10/14 05:02:59;;;;;;;0.50;0.30;;;13.10;99.90;;;;;;5052788;28;20528;-76
2022/10/14 05:05:28;;;;;;;0.50;0.37;;;13.10;99.90;;;;;;5052676;28;20433;-76
2022/10/14 05:07:55;;;;;;;2.30;2.20;;;13.10;99.90;;;;;;5052526;28;20443;-76
2022/10/14 05:10:21;;;;;;;0.57;0.57;;;13.10;99.90;;;;;;5052051;28;20576;-77
2022/10/14 05:12:49;;;;;;;0.50;0.30;;;13.10;99.90;;;;;;5052384;28;20433;-76
2022/10/14 05:15:16;;;;;;;0.50;0.40;;;13.00;99.90;;;;;;5052343;28;20430;-77
2022/10/14 05:17:44;;;;;;;0.50;0.30;;;13.10;99.90;;;;;;5052436;28;20523;-76
2022/10/14 05:20:11;;;;;;;0.50;0.40;;;13.10;99.90;;;;;;5051920;28;20429;-76
2022/10/14 05:22:39;;;;;;;0.50;0.40;;;13.10;99.90;;;;;;5052421;28;20460;-77
2022/10/14 05:25:07;;;;;;;0.50;0.30;;;13.10;99.90;;;;;;5051880;28;20511;-77
2022/10/14 05:27:34;;;;;;;0.50;0.30;;;13.10;99.90;;;;;;5052347;28;20461;-76
2022/10/14 05:30:01;;;;;;;0.50;0.30;;;13.10;99.90;;;;;;5053016;28;20560;-75
2022/10/14 05:32:28;;;;;;;0.50;0.37;;;13.10;99.90;;;;;;5052787;28;21033;-76
2022/10/14 05:34:55;;;;;;;0.50;0.30;;;13.10;99.90;;;;;;5051352;28;20514;-76
2022/10/14 05:37:22;;;;;;;0.50;0.30;;;13.10;99.90;;;;;;5052374;28;20547;-76
2022/10/14 05:39:50;;;;;;;0.50;0.30;;;13.20;99.90;;;;;;5051551;28;21011;-76
2022/10/14 05:42:16;;;;;;;0.50;0.30;;;13.20;99.90;;;;;;5051487;28;20453;-76
2022/10/14 05:44:43;;;;;;;0.50;0.30;;;13.10;99.90;;;;;;5050903;28;20437;-76
2022/10/14 05:47:10;;;;;;;0.50;0.30;;;13.20;99.90;;;;;;5050815;28;20480;-76
2022/10/14 05:49:37;;;;;;;0.50;0.40;;;13.20;99.90;;;;;;5051308;28;20526;-76
2022/10/14 05:52:05;;;;;;;2.63;2.33;;;13.10;99.90;;;;;;5051063;28;20576;-76
2022/10/14 05:54:32;;;;;;;0.50;0.30;;;13.20;99.90;;;;;;5051508;28;20857;-76
2022/10/14 05:57:00;;;;;;;0.50;0.30;;;13.10;99.90;;;;;;5051112;28;20954;-76
2022/10/14 05:59:28;;;;;;;0.50;0.30;;;13.20;99.90;;;;;;5051223;28;20449;-76
2022/10/14 06:01:55;;;;;;;1.40;1.33;;;13.20;99.90;;;;;;5061759;28;20500;-76
2022/10/14 06:04:22;;;;;;;0.50;0.30;;;13.20;99.90;;;;;;5050956;28;20508;-76
2022/10/14 06:06:49;;;;;;;0.50;0.40;;;13.20;99.90;;;;;;5051137;28;20447;-76
2022/10/14 06:09:16;;;;;;;0.50;0.30;;;13.20;99.90;;;;;;5050806;28;20518;-76
2022/10/14 06:11:43;;;;;;;0.70;0.50;;;13.20;99.90;;;;;;5050900;28;20556;-76
2022/10/14 06:14:12;;;;;;;1.07;0.97;;;13.20;99.90;;;;;;5050793;28;20441;-75
2022/10/14 06:16:38;;;;;;;0.50;0.30;;;13.20;99.90;;;;;;5051558;28;20445;-76
2022/10/14 06:19:06;;;;;;;0.50;0.40;;;13.20;99.90;;;;;;5050999;28;20532;-76
2022/10/14 06:21:32;;;;;;;0.50;0.37;;;13.20;99.90;;;;;;5051226;28;20454;-76
2022/10/14 06:23:59;;;;;;;0.50;0.30;;;13.20;99.90;;;;;;5050699;28;20477;-73
2022/10/14 06:26:26;;;;;;;0.50;0.30;;;13.30;99.90;;;;;;5050816;28;20473;-76
2022/10/14 06:28:53;;;;;;;1.17;1.07;;;13.30;99.90;;;;;;5050887;28;20960;-76
2022/10/14 06:31:21;;;;;;;0.50;0.30;;;13.30;99.90;;;;;;5050910;28;20481;-76
2022/10/14 06:33:48;;;;;;;0.50;0.30;;;13.30;99.90;;;;;;5051060;28;20452;-76
2022/10/14 06:36:15;;;;;;;2.57;2.43;;;13.40;99.90;;;;;;5050954;28;20905;-77
2022/10/14 06:38:42;;;;;;;0.50;0.30;;;13.40;99.90;;;;;;5051514;28;20447;-76
2022/10/14 06:41:09;;;;;;;1.57;0.70;;;13.40;99.90;;;;;;5050678;28;20990;-76
2022/10/14 06:43:36;;;;;;;0.50;0.30;;;13.40;99.90;;;;;;5050579;28;20440;-76
2022/10/14 06:46:04;;;;;;;0.50;0.30;;;13.40;99.90;;;;;;5050817;28;20449;-74
2022/10/14 06:48:32;;;;;;;0.50;0.40;;;13.40;99.90;;;;;;5051292;28;20853;-76
2022/10/14 06:51:00;;;;;;;0.50;0.30;;;13.40;99.90;;;;;;5050825;28;20571;-76
2022/10/14 06:53:27;;;;;;;0.50;0.30;;;13.50;99.90;;;;;;5051194;28;20449;-76
2022/10/14 06:55:58;;;;;;;0.50;0.40;;;13.50;99.90;;;;;;5053034;28;20443;-77
2022/10/14 06:58:25;;;;;;;0.50;0.30;;;13.50;99.90;;;;;;5051927;28;20425;-77
2022/10/14 07:00:52;;;;;;;0.50;0.40;;;13.50;99.90;;;;;;5052452;28;20469;-76
2022/10/14 07:03:19;;;;;;;0.50;0.40;;;13.50;99.90;;;;;;5053479;28;20441;-77
2022/10/14 07:05:47;;;;;;;0.67;0.50;;;13.60;99.90;;;;;;5051255;28;20436;-77
2022/10/14 07:08:14;;;;;;;0.50;0.30;;;13.60;99.90;;;;;;5051245;28;20437;-77
2022/10/14 07:10:41;;;;;;;0.50;0.30;;;13.60;99.90;;;;;;5052585;28;20483;-77
2022/10/14 07:13:08;;;;;;;2.60;2.40;;;13.70;99.90;;;;;;5048162;28;20811;-79
2022/10/14 07:15:35;;;;;;;0.50;0.30;;;13.70;99.90;;;;;;5047666;28;20480;-77
2022/10/14 07:18:01;;;;;;;3.03;2.00;;;13.80;99.90;;;;;;5054063;28;20519;-78
2022/10/14 07:20:28;;;;;;;1.27;1.17;;;13.80;99.90;;;;;;5045228;28;20576;-78
2022/10/14 07:22:57;;;;;;;0.60;0.50;;;13.80;99.90;;;;;;5060707;28;20536;-78
2022/10/14 07:25:23;;;;;;;0.60;0.60;;;13.80;99.90;;;;;;5063152;28;20459;-78
2022/10/14 07:27:52;;;;;;;14.43;2.20;;;13.90;99.90;;;;;;5056545;28;20441;-78
2022/10/14 07:30:19;;;;;;;0.60;0.50;;;13.90;99.90;;;;;;5055418;28;20820;-78
2022/10/14 07:32:46;;;;;;;0.50;0.30;;;13.90;99.90;;;;;;5056791;28;20451;-79
2022/10/14 07:35:13;;;;;;;0.60;0.60;;;13.90;99.90;;;;;;5056378;28;20535;-78
2022/10/14 07:37:39;;;;;;;0.50;0.30;;;13.90;99.90;;;;;;5054915;28;20421;-78
2022/10/14 07:40:09;;;;;;;0.67;0.57;;;13.80;99.90;;;;;;5055223;28;20436;-78
2022/10/14 07:42:36;;;;;;;1.10;1.10;;;13.80;99.90;;;;;;5056554;28;20984;-77
2022/10/14 07:45:04;;;;;;;0.67;0.67;;;13.80;99.90;;;;;;5056059;28;20520;-77
2022/10/14 07:47:32;;;;;;;0.60;0.40;;;13.90;99.90;;;;;;5055354;28;20515;-77
2022/10/14 07:49:59;;;;;;;1.17;1.07;;;13.90;99.90;;;;;;5054291;28;20976;-77
2022/10/14 07:52:26;;;;;;;0.50;0.40;;;13.90;99.90;;;;;;5056237;28;20455;-77
2022/10/14 07:54:53;;;;;;;0.50;0.50;;;14.00;99.90;;;;;;5057211;28;21002;-77
2022/10/14 07:57:22;;;;;;;0.50;0.40;;;14.10;99.90;;;;;;5053768;28;20445;-78
2022/10/14 07:59:51;;;;;;;0.90;0.50;;;14.10;99.90;;;;;;5053261;28;20996;-77
2022/10/14 08:02:18;;;;;;;0.50;0.30;;;14.10;99.90;;;;;;5053991;28;20499;-77
2022/10/14 08:04:45;;;;;;;1.73;1.63;;;14.10;99.90;;;;;;5054018;28;20472;-78
2022/10/14 08:07:13;;;;;;;0.60;0.60;;;14.20;99.90;;;;;;5054739;28;20451;-79
2022/10/14 08:09:40;;;;;;;3.53;1.13;;;14.20;99.90;;;;;;5054366;28;20953;-78
2022/10/14 08:12:07;;;;;;;0.50;0.30;;;14.20;99.90;;;;;;5054176;28;20491;-79
2022/10/14 08:14:35;;;;;;;3.80;1.13;;;14.20;99.90;;;;;;5054259;28;20448;-79
2022/10/14 08:17:02;;;;;;;0.50;0.30;;;14.30;99.90;;;;;;5056531;28;20445;-78
2022/10/14 08:19:29;;;;;;;0.50;0.43;;;14.30;99.90;;;;;;5056029;28;20475;-79
2022/10/14 08:21:56;;;;;;;0.50;0.40;;;14.30;99.90;;;;;;5056013;28;20465;-80
2022/10/14 08:24:23;;;;;;;0.50;0.40;;;14.30;99.90;;;;;;5045939;28;20548;-79
2022/10/14 08:26:53;;;;;;;1.10;0.73;;;14.40;99.90;;;;;;5035386;28;20517;-78
2022/10/14 08:29:22;;;;;;;0.50;0.30;;;14.40;99.90;;;;;;5033507;28;20450;-79
2022/10/14 08:31:51;;;;;;;0.50;0.40;;;14.40;99.90;;;;;;5032979;28;20504;-76
2022/10/14 08:34:19;;;;;;;0.50;0.30;;;14.40;99.90;;;;;;5033679;28;20944;-78
2022/10/14 08:36:47;;;;;;;1.17;0.67;;;14.50;99.90;;;;;;5033974;28;20445;-78
2022/10/14 08:39:17;;;;;;;0.50;0.30;;;14.40;99.90;;;;;;5033719;28;20943;-78
2022/10/14 08:42:04;;;;;;;0.50;0.40;;;14.40;99.90;;;;;;5033624;28;20461;-79
2022/10/14 08:44:40;;;;;;;0.90;0.90;;;14.40;99.90;;;;;;5034215;28;20442;-79
2022/10/14 08:47:16;;;;;;;0.50;0.30;;;14.50;99.90;;;;;;5034212;28;21074;-79
2022/10/14 08:49:56;;;;;;;0.60;0.60;;;14.50;99.90;;;;;;5033922;28;21035;-79
2022/10/14 08:52:27;;;;;;;0.80;0.60;;;14.70;99.90;;;;;;5034487;28;20866;-79
2022/10/14 08:54:58;;;;;;;0.50;0.50;;;14.80;99.90;;;;;;5033685;28;20472;-78
2022/10/14 08:57:28;;;;;;;0.60;0.50;;;14.80;99.90;;;;;;5033909;28;20492;-78
2022/10/14 08:59:55;;;;;;;0.63;0.50;;;14.80;99.90;;;;;;5033952;28;20453;-78
2022/10/14 09:02:34;;;;;;;0.70;0.70;;;14.90;99.90;;;;;;5033828;28;20450;-79
2022/10/14 09:05:03;;;;;;;0.97;0.50;;;15.00;99.90;;;;;;5034185;28;20527;-79
2022/10/14 09:07:33;;;;;;;0.50;0.40;;;15.10;99.90;;;;;;5033840;28;20477;-78
2022/10/14 09:10:06;;;;;;;0.50;0.30;;;15.30;99.90;;;;;;5033293;28;20433;-78
2022/10/14 09:12:34;;;;;;;0.60;0.50;;;15.40;99.90;;;;;;5033196;28;20469;-79
2022/10/14 09:15:12;;;;;;;0.50;0.30;;;15.30;99.90;;;;;;5034995;28;20880;-79
2022/10/14 09:17:46;;;;;;;0.50;0.40;;;15.30;99.90;;;;;;5034994;28;20428;-79
2022/10/14 09:20:19;;;;;;;0.50;0.30;;;15.30;99.90;;;;;;5035446;28;20445;-79
2022/10/14 09:22:56;;;;;;;0.50;0.40;;;15.30;99.90;;;;;;5035424;28;20463;-79
2022/10/14 09:25:23;;;;;;;0.50;0.40;;;15.30;99.90;;;;;;5039184;28;20518;-79
2022/10/14 09:27:50;;;;;;;0.50;0.37;;;15.30;99.90;;;;;;5043995;28;20514;-79
2022/10/14 09:30:18;;;;;;;0.70;0.60;;;15.30;99.90;;;;;;5035254;28;20462;-79
2022/10/14 09:32:49;;;;;;;0.50;0.30;;;15.30;99.90;;;;;;5034435;28;21030;-79
2022/10/14 09:35:23;;;;;;;0.80;0.80;;;15.40;99.90;;;;;;5033860;28;20445;-79
2022/10/14 09:37:50;;;;;;;1.23;0.80;;;15.40;99.90;;;;;;5034378;28;20453;-79
2022/10/14 09:40:24;;;;;;;0.50;0.30;;;15.50;99.90;;;;;;5034786;28;20484;-80
2022/10/14 09:42:57;;;;;;;0.50;0.30;;;15.60;99.90;;;;;;5033793;28;20517;-80
2022/10/14 09:45:24;;;;;;;0.50;0.40;;;15.70;99.90;;;;;;5033567;28;20448;-79
2022/10/14 09:47:56;;;;;;;0.50;0.40;;;15.80;99.90;;;;;;5034263;28;20789;-80
2022/10/14 09:50:30;;;;;;;0.50;0.40;;;15.80;99.90;;;;;;5033035;28;20462;-79
2022/10/14 09:53:01;;;;;;;0.50;0.30;;;15.80;99.90;;;;;;5033595;28;20548;-79
2022/10/14 09:55:29;;;;;;;9.43;1.53;;;15.80;99.90;;;;;;5033166;28;20422;-80
2022/10/14 09:58:05;;;;;;;0.50;0.30;;;15.90;99.90;;;;;;5033665;28;20442;-77
2022/10/14 10:00:36;;;;;;;0.50;0.30;;;16.00;99.90;;;;;;5033594;28;20987;-79
2022/10/14 10:03:05;;;;;;;0.50;0.30;;;16.20;99.90;;;;;;5033539;28;20426;-78
2022/10/14 10:05:34;;;;;;;0.50;0.30;;;16.30;99.90;;;;;;5033112;28;20465;-79
2022/10/14 10:08:04;;;;;;;0.60;0.53;;;16.30;99.90;;;;;;5033269;28;20520;-79
2022/10/14 10:10:33;;;;;;;0.60;0.60;;;16.30;99.90;;;;;;5032864;28;20964;-79
2022/10/14 10:13:01;;;;;;;0.50;0.30;;;16.30;99.90;;;;;;5033314;28;20860;-77
2022/10/14 10:15:28;;;;;;;1.30;0.93;;;16.20;99.90;;;;;;5033314;28;20501;-79
2022/10/14 10:17:55;;;;;;;0.50;0.37;;;16.20;99.90;;;;;;5034418;28;20562;-79
2022/10/14 10:20:31;;;;;;;0.80;0.80;;;16.30;99.90;;;;;;5032683;28;20461;-79
2022/10/14 10:23:16;;;;;;;1.23;1.13;;;16.40;99.90;;;;;;5033257;28;20784;-79
2022/10/14 10:25:42;;;;;;;1.93;1.83;;;16.50;99.90;;;;;;5032618;28;20869;-79
2022/10/14 10:28:17;;;;;;;0.50;0.40;;;16.50;99.90;;;;;;5033827;28;20541;-78
2022/10/14 10:30:51;;;;;;;0.50;0.30;;;16.50;99.90;;;;;;5032723;28;20465;-79
2022/10/14 10:33:25;;;;;;;0.50;0.30;;;16.50;99.90;;;;;;5033134;28;20927;-77
2022/10/14 10:36:12;;;;;;;0.50;0.30;;;16.40;99.90;;;;;;5032101;28;20441;-78
2022/10/14 10:38:50;;;;;;;0.60;0.50;;;16.40;99.90;;;;;;5032376;28;20782;-78
2022/10/14 10:41:29;;;;;;;0.50;0.30;;;16.30;99.90;;;;;;5064868;22;20495;-77
2022/10/14 10:44:16;;;;;;;0.50;0.30;;;16.30;99.90;;;;;;5063465;28;20503;-76
2022/10/14 10:46:59;;;;;;;0.50;0.30;;;16.20;99.90;;;;;;5070948;28;20420;-76
2022/10/14 10:49:46;;;;;;;0.50;0.30;;;16.30;99.90;;;;;;5070629;28;20434;-77
2022/10/14 10:52:23;;;;;;;0.50;0.30;;;16.20;99.90;;;;;;5070856;28;20830;-77
2022/10/14 10:54:57;;;;;;;0.60;0.50;;;16.20;99.90;;;;;;5072094;28;20435;-77
2022/10/14 10:57:36;;;;;;;0.50;0.40;;;16.20;99.90;;;;;;5075228;28;20435;-77
2022/10/14 11:00:08;;;;;;;0.50;0.30;;;16.10;99.90;;;;;;5075222;28;20427;-78
2022/10/14 11:02:55;;;;;;;0.57;0.47;;;16.10;99.90;;;;;;5074682;28;20770;-77
2022/10/14 11:05:41;;;;;;;0.53;0.37;;;16.10;99.90;;;;;;5075665;28;20432;-78
2022/10/14 11:14:23;;;;;;;0.50;0.30;;;16.10;99.90;;;;;;5074433;28;20431;-78
2022/10/14 11:17:00;;;;;;;0.50;0.40;;;16.10;99.90;;;;;;5074516;28;20453;-78
2022/10/14 11:19:36;;;;;;;0.50;0.33;;;16.20;99.90;;;;;;5074605;28;20451;-77
2022/10/14 11:22:16;;;;;;;0.50;0.40;;;16.20;99.90;;;;;;5075073;28;20455;-78
2022/10/14 11:24:57;;;;;;;0.50;0.30;;;16.20;99.90;;;;;;5074259;28;20771;-77
2022/10/14 11:27:30;;;;;;;0.50;0.30;;;16.20;99.90;;;;;;5074561;28;20444;-78
2022/10/14 11:30:13;;;;;;;0.50;0.33;;;16.20;99.90;;;;;;5074940;28;20489;-77
2022/10/14 11:32:56;;;;;;;0.50;0.40;;;16.20;99.90;;;;;;5074560;28;20480;-78
2022/10/14 11:35:33;;;;;;;1.23;1.23;;;16.10;99.90;;;;;;5074724;28;20444;-78
2022/10/14 11:38:26;;;;;;;0.60;0.50;;;16.10;99.90;;;;;;5074556;28;20844;-79
2022/10/14 11:41:01;;;;;;;0.80;0.80;;;16.00;99.90;;;;;;5073877;28;20471;-78
2022/10/14 11:43:38;;;;;;;0.50;0.30;;;15.90;99.90;;;;;;5074417;28;20833;-77
2022/10/14 11:46:08;;;;;;;0.77;0.77;;;15.80;99.90;;;;;;5074072;28;20420;-77
2022/10/14 11:48:39;;;;;;;0.60;0.50;;;15.70;99.90;;;;;;5074183;28;20452;-78
2022/10/14 11:51:15;;;;;;;0.90;0.90;;;15.60;99.90;;;;;;5074245;28;20464;-79
2022/10/14 11:53:59;;;;;;;0.50;0.40;;;15.50;99.90;;;;;;5073789;28;20433;-77
2022/10/14 11:56:37;;;;;;;0.50;0.30;;;15.40;99.90;;;;;;5072888;28;20454;-77
2022/10/14 11:59:36;;;;;;;1.10;0.97;;;15.30;99.90;;;;;;5073947;28;21005;-79
2022/10/14 12:02:17;;;;;;;0.50;0.43;;;15.20;99.90;;;;;;5073514;28;20464;-77
2022/10/14 12:04:49;;;;;;;0.50;0.30;;;15.20;99.90;;;;;;5073313;28;20916;-78
2022/10/14 12:07:21;;;;;;;0.50;0.30;;;15.10;99.90;;;;;;5072017;28;20447;-77
2022/10/14 12:09:52;;;;;;;5.50;1.23;;;15.10;99.90;;;;;;5073505;28;20444;-77
2022/10/14 12:12:24;;;;;;;0.50;0.30;;;15.20;99.90;;;;;;5073340;28;20818;-77
2022/10/14 12:14:56;;;;;;;0.50;0.30;;;15.20;99.90;;;;;;5073163;28;20953;-77
2022/10/14 12:17:29;;;;;;;0.90;0.80;;;15.20;99.90;;;;;;5073643;28;20424;-77
2022/10/14 12:19:57;;;;;;;0.53;0.53;;;15.30;99.90;;;;;;5073306;28;20429;-77
2022/10/14 12:22:26;;;;;;;0.50;0.37;;;15.40;99.90;;;;;;5073528;28;20438;-78
2022/10/14 12:24:55;;;;;;;2.00;0.70;;;15.40;99.90;;;;;;5072234;28;20442;-78
2022/10/14 12:27:25;;;;;;;0.50;0.40;;;15.50;99.90;;;;;;5073350;28;20818;-77
2022/10/14 12:29:54;;;;;;;0.60;0.43;;;15.50;99.90;;;;;;5073005;28;20436;-77
2022/10/14 12:32:24;;;;;;;0.50;0.40;;;15.50;99.90;;;;;;5073100;28;21062;-77
2022/10/14 12:34:53;;;;;;;1.30;1.20;;;15.50;99.90;;;;;;5072922;28;20798;-78
2022/10/14 12:37:51;;;;;;;0.50;0.30;;;15.50;99.90;;;;;;5072914;28;20938;-78
2022/10/14 12:40:26;;;;;;;0.50;0.37;;;15.50;99.90;;;;;;5073040;28;20448;-78
2022/10/14 12:43:02;;;;;;;0.50;0.40;;;15.50;99.90;;;;;;5072950;28;20446;-77
2022/10/14 12:45:31;;;;;;;0.50;0.30;;;15.50;99.90;;;;;;5072329;28;20448;-76
2022/10/14 12:48:05;;;;;;;0.50;0.40;;;15.60;99.90;;;;;;5072875;28;20440;-77
2022/10/14 12:50:37;;;;;;;2.13;0.57;;;15.50;99.90;;;;;;5072355;28;20524;-78
2022/10/14 12:53:07;;;;;;;0.60;0.43;;;15.50;99.90;;;;;;5072659;28;20480;-78
2022/10/14 12:55:46;;;;;;;0.50;0.30;;;15.50;99.90;;;;;;5071990;28;20440;-78
2022/10/14 12:58:24;;;;;;;0.50;0.30;;;15.50;99.90;;;;;;5073558;28;20462;-77
2022/10/14 13:00:56;;;;;;;0.50;0.50;;;15.50;99.90;;;;;;5072445;28;20821;-77
2022/10/14 13:03:26;;;;;;;0.50;0.50;;;15.60;99.90;;;;;;5072014;28;20425;-77
2022/10/14 13:06:13;;;;;;;0.50;0.40;;;15.60;99.90;;;;;;5072478;28;20440;-77
2022/10/14 13:08:40;;;;;;;0.50;0.30;;;15.60;99.90;;;;;;5072325;28;20448;-77